Time;durP1;ratioP1;P1;durP2;ratioP2;P2;SDS_P1;SDS_P2;PMS_P1;PMS_P2;Temp;Humidity;BMP_temperature;BMP_pressure;BME280_temperature;BME280_humidity;BME280_pressure;Samples;Min_cycle;Max_cycle;Signal;HPM_P1;HPM_P2
2022/05/17 00:01:07;;;;;;;24.35;6.30;;;20.00;87.00;;;;;;4991518;28;20430;-67
2022/05/17 00:03:34;;;;;;;17.95;5.68;;;19.90;86.90;;;;;;4991224;28;20475;-68
2022/05/17 00:05:59;;;;;;;18.65;6.43;;;19.90;86.90;;;;;;4991828;28;20097;-67
2022/05/17 00:08:25;;;;;;;19.40;5.70;;;19.90;86.90;;;;;;4991420;28;20046;-68
2022/05/17 00:10:51;;;;;;;26.23;7.53;;;19.90;86.90;;;;;;4991275;28;20130;-68
2022/05/17 00:13:17;;;;;;;21.48;6.68;;;19.90;86.90;;;;;;4991489;28;20121;-68
2022/05/17 00:15:49;;;;;;;17.50;6.25;;;19.80;86.70;;;;;;4991483;28;20030;-68
2022/05/17 00:18:16;;;;;;;11.00;4.57;;;19.80;86.70;;;;;;4991428;28;20050;-68
2022/05/17 00:20:43;;;;;;;20.30;5.45;;;19.80;86.50;;;;;;4991206;28;20042;-68
2022/05/17 00:23:12;;;;;;;17.58;4.55;;;19.70;86.50;;;;;;4991912;28;20069;-68
2022/05/17 00:25:38;;;;;;;18.48;4.20;;;19.70;86.40;;;;;;4990867;28;20038;-68
2022/05/17 00:28:04;;;;;;;11.35;3.05;;;19.70;86.40;;;;;;4991592;28;20080;-68
2022/05/17 00:30:31;;;;;;;13.10;5.07;;;19.70;86.20;;;;;;4990309;28;20030;-67
2022/05/17 00:33:00;;;;;;;17.35;5.43;;;19.60;86.40;;;;;;4991412;28;20089;-68
2022/05/17 00:35:28;;;;;;;15.00;4.00;;;19.60;86.40;;;;;;4991279;28;20023;-68
2022/05/17 00:37:54;;;;;;;14.70;5.15;;;19.60;86.30;;;;;;4991440;28;20034;-67
2022/05/17 00:40:20;;;;;;;17.15;5.50;;;19.60;87.00;;;;;;4991033;28;20081;-68
2022/05/17 00:42:45;;;;;;;16.15;5.28;;;19.50;86.30;;;;;;4991487;28;20406;-68
2022/05/17 00:45:11;;;;;;;12.75;5.05;;;19.50;86.30;;;;;;4992715;28;20038;-68
2022/05/17 00:47:44;;;;;;;21.30;4.80;;;19.50;86.40;;;;;;4994911;28;20046;-67
2022/05/17 00:50:38;;;;;;;15.27;3.85;;;19.50;86.40;;;;;;4995364;28;20398;-68
2022/05/17 00:53:10;;;;;;;11.25;4.68;;;19.40;86.10;;;;;;4988996;28;20066;-68
2022/05/17 00:55:44;;;;;;;13.60;4.05;;;19.40;86.20;;;;;;4995166;28;20065;-67
2022/05/17 00:58:17;;;;;;;11.00;4.50;;;19.30;86.10;;;;;;4995169;28;20105;-67
2022/05/17 01:01:07;;;;;;;17.05;5.00;;;19.30;86.20;;;;;;4994617;28;20041;-67
2022/05/17 01:03:57;;;;;;;15.25;4.63;;;19.30;86.20;;;;;;4994878;28;20035;-68
2022/05/17 01:06:57;;;;;;;15.32;4.53;;;19.20;86.20;;;;;;4984066;28;20061;-67
2022/05/17 01:09:23;;;;;;;12.93;4.60;;;19.20;86.30;;;;;;4985100;28;20038;-68
2022/05/17 01:11:51;;;;;;;16.23;4.88;;;19.10;86.30;;;;;;4994640;28;20093;-68
2022/05/17 01:17:04;;;;;;;15.07;4.20;;;19.10;86.50;;;;;;4995332;28;20034;-68
2022/05/17 01:19:30;;;;;;;16.25;4.70;;;19.00;86.30;;;;;;4995115;28;20034;-68
2022/05/17 01:21:56;;;;;;;19.73;5.95;;;19.00;86.40;;;;;;4994216;28;20089;-67
2022/05/17 01:24:22;;;;;;;21.42;4.78;;;19.00;86.50;;;;;;4994942;28;20041;-67
2022/05/17 01:27:00;;;;;;;19.08;5.05;;;19.00;86.40;;;;;;4994892;28;20439;-68
2022/05/17 01:29:26;;;;;;;20.77;4.63;;;19.00;86.50;;;;;;4994487;28;20030;-68
2022/05/17 01:31:51;;;;;;;15.45;4.60;;;19.00;86.40;;;;;;4985708;28;20126;-67
2022/05/17 01:34:18;;;;;;;14.55;4.32;;;19.00;86.40;;;;;;4994995;28;20117;-68
2022/05/17 01:36:43;;;;;;;11.43;4.20;;;19.00;86.40;;;;;;4994588;28;20121;-68
2022/05/17 01:39:10;;;;;;;15.50;4.15;;;18.90;86.30;;;;;;4989348;28;20457;-68
2022/05/17 01:41:35;;;;;;;16.45;4.65;;;18.90;86.20;;;;;;4994461;28;20034;-68
2022/05/17 01:44:01;;;;;;;9.27;3.30;;;18.90;86.20;;;;;;4994667;28;20034;-68
2022/05/17 01:46:27;;;;;;;17.63;4.88;;;18.80;86.00;;;;;;4994640;28;20093;-68
2022/05/17 01:48:54;;;;;;;16.25;5.25;;;18.80;86.20;;;;;;4994252;28;20023;-68
2022/05/17 01:51:20;;;;;;;13.85;4.78;;;18.80;86.30;;;;;;4994555;28;20478;-67
2022/05/17 01:53:49;;;;;;;14.77;5.20;;;18.70;86.30;;;;;;4994298;28;20493;-67
2022/05/17 01:56:16;;;;;;;13.18;4.28;;;18.70;86.40;;;;;;4985565;28;20031;-68
2022/05/17 01:58:45;;;;;;;10.75;3.30;;;18.70;86.30;;;;;;4989684;28;20352;-68
2022/05/17 02:01:11;;;;;;;16.02;4.18;;;18.70;86.20;;;;;;4992047;28;20030;-67
2022/05/17 02:03:37;;;;;;;16.23;3.67;;;18.70;86.30;;;;;;4994202;28;20038;-68
2022/05/17 02:06:03;;;;;;;15.80;4.13;;;18.70;86.30;;;;;;4994446;28;20076;-68
2022/05/17 02:08:29;;;;;;;16.63;4.45;;;18.70;86.40;;;;;;4994558;28;20070;-67
2022/05/17 02:10:55;;;;;;;13.95;4.25;;;18.70;86.30;;;;;;4994481;28;20026;-68
2022/05/17 02:13:21;;;;;;;19.63;4.18;;;18.60;86.40;;;;;;4994239;28;20027;-68
2022/05/17 02:15:47;;;;;;;12.85;4.10;;;18.60;86.30;;;;;;4994601;28;20108;-68
2022/05/17 02:18:12;;;;;;;11.65;3.85;;;18.60;86.50;;;;;;4994176;28;20072;-68
2022/05/17 02:20:38;;;;;;;14.52;3.83;;;18.60;86.40;;;;;;4994136;28;20130;-68
2022/05/17 02:23:07;;;;;;;16.95;3.97;;;18.60;86.40;;;;;;4994526;28;20438;-68
2022/05/17 02:25:34;;;;;;;11.68;4.50;;;18.60;86.50;;;;;;4981427;28;20037;-68
2022/05/17 02:28:09;;;;;;;14.57;4.20;;;18.50;86.60;;;;;;4994160;28;20130;-67
2022/05/17 02:30:35;;;;;;;14.00;3.90;;;18.50;86.70;;;;;;4991665;28;20772;-67
2022/05/17 02:33:01;;;;;;;12.57;4.38;;;18.50;86.70;;;;;;4987949;28;20030;-68
2022/05/17 02:35:28;;;;;;;14.43;3.75;;;18.50;86.70;;;;;;4994503;28;20110;-67
2022/05/17 02:37:53;;;;;;;14.75;4.40;;;18.40;86.40;;;;;;4992274;28;20113;-67
2022/05/17 02:40:22;;;;;;;14.80;4.53;;;18.40;86.60;;;;;;4994847;28;20030;-68
2022/05/17 02:42:48;;;;;;;14.63;4.50;;;18.30;86.40;;;;;;4994588;28;20034;-67
2022/05/17 02:45:13;;;;;;;18.13;4.05;;;18.40;86.60;;;;;;4994145;28;20042;-67
2022/05/17 02:47:39;;;;;;;16.83;4.53;;;18.30;86.70;;;;;;4984023;28;20047;-67
2022/05/17 02:50:05;;;;;;;19.30;4.97;;;18.30;86.80;;;;;;4994112;28;20045;-67
2022/05/17 02:52:31;;;;;;;19.45;4.68;;;18.30;86.80;;;;;;4993960;28;20394;-69
2022/05/17 02:54:57;;;;;;;17.25;4.82;;;18.30;86.90;;;;;;4994563;28;20030;-68
2022/05/17 02:57:22;;;;;;;15.40;5.03;;;18.30;87.00;;;;;;4994093;28;20066;-67
2022/05/17 02:59:48;;;;;;;14.48;4.93;;;18.30;86.90;;;;;;4993694;28;20041;-68
2022/05/17 03:02:14;;;;;;;17.60;5.55;;;18.30;86.90;;;;;;4994237;28;20042;-67
2022/05/17 03:04:41;;;;;;;22.25;5.35;;;18.30;87.00;;;;;;4991794;28;20070;-67
2022/05/17 03:07:07;;;;;;;18.65;6.13;;;18.30;87.10;;;;;;4993463;28;20058;-67
2022/05/17 03:09:32;;;;;;;16.60;5.30;;;18.30;87.20;;;;;;4993673;28;20042;-68
2022/05/17 03:11:58;;;;;;;23.33;6.40;;;18.30;87.40;;;;;;4994321;28;20030;-67
2022/05/17 03:14:24;;;;;;;23.55;4.93;;;18.20;87.30;;;;;;4993546;28;20466;-68
2022/05/17 03:16:49;;;;;;;16.10;5.72;;;18.30;86.90;;;;;;4993894;28;20502;-67
2022/05/17 03:19:17;;;;;;;20.88;5.50;;;18.20;86.70;;;;;;4993855;28;20023;-68
2022/05/17 03:21:43;;;;;;;20.55;6.22;;;18.20;86.80;;;;;;4993473;28;20543;-67
2022/05/17 03:24:08;;;;;;;17.15;4.78;;;18.20;86.90;;;;;;4993771;28;20030;-67
2022/05/17 03:26:34;;;;;;;19.27;5.15;;;18.20;86.80;;;;;;4993756;28;20379;-67
2022/05/17 03:29:00;;;;;;;22.83;5.28;;;18.20;86.80;;;;;;4993386;28;20034;-68
2022/05/17 03:31:26;;;;;;;16.45;5.40;;;18.20;86.80;;;;;;4993522;28;20034;-68
2022/05/17 03:33:52;;;;;;;17.58;5.03;;;18.10;86.80;;;;;;4993599;28;20034;-67
2022/05/17 03:36:18;;;;;;;21.15;4.88;;;18.10;86.90;;;;;;4993278;28;20105;-68
2022/05/17 03:38:46;;;;;;;18.98;4.80;;;18.10;86.90;;;;;;4993399;28;20546;-67
2022/05/17 03:41:12;;;;;;;12.35;4.60;;;18.10;87.10;;;;;;4993366;28;20038;-68
2022/05/17 03:43:38;;;;;;;18.88;4.70;;;18.00;86.90;;;;;;4993327;28;20026;-67
2022/05/17 03:46:06;;;;;;;19.10;5.75;;;18.00;87.00;;;;;;4993325;28;20093;-68
2022/05/17 03:48:32;;;;;;;14.88;4.90;;;18.10;87.10;;;;;;4992746;28;20065;-67
2022/05/17 03:50:58;;;;;;;14.45;5.05;;;18.00;86.90;;;;;;4993555;28;20477;-68
2022/05/17 03:53:23;;;;;;;20.67;4.88;;;18.00;87.10;;;;;;4993094;28;20030;-68
2022/05/17 03:55:49;;;;;;;21.65;5.93;;;18.00;87.00;;;;;;4993141;28;20026;-67
2022/05/17 03:58:15;;;;;;;14.13;4.68;;;18.00;87.20;;;;;;4993295;28;20070;-69
2022/05/17 04:00:41;;;;;;;14.60;4.60;;;18.00;87.30;;;;;;4993692;28;20038;-68
2022/05/17 04:03:07;;;;;;;17.58;5.18;;;18.00;87.30;;;;;;4992673;28;20378;-68
2022/05/17 04:05:35;;;;;;;15.48;4.68;;;17.90;87.40;;;;;;4992563;28;20030;-67
2022/05/17 04:08:01;;;;;;;19.30;5.53;;;18.00;87.80;;;;;;4992927;28;20058;-68
2022/05/17 04:10:27;;;;;;;18.30;4.80;;;18.00;87.90;;;;;;4992891;28;20033;-68
2022/05/17 04:12:52;;;;;;;19.55;5.07;;;17.90;87.90;;;;;;4992973;28;20489;-68
2022/05/17 04:15:21;;;;;;;21.27;5.07;;;17.90;87.90;;;;;;4993257;28;20377;-68
2022/05/17 04:17:47;;;;;;;13.07;3.90;;;17.90;87.80;;;;;;4992473;28;20101;-68
2022/05/17 04:20:15;;;;;;;18.33;4.45;;;17.90;87.50;;;;;;4992631;28;20122;-67
2022/05/17 04:22:42;;;;;;;14.23;4.45;;;17.90;87.60;;;;;;4993026;28;20482;-70
2022/05/17 04:25:08;;;;;;;9.75;4.38;;;17.80;87.60;;;;;;4992814;28;20066;-69
2022/05/17 04:27:34;;;;;;;21.50;4.80;;;17.90;87.70;;;;;;4992887;28;20085;-69
2022/05/17 04:29:59;;;;;;;19.73;4.53;;;17.90;87.40;;;;;;4992244;28;20092;-69
2022/05/17 04:32:25;;;;;;;13.98;3.85;;;17.80;87.10;;;;;;4992274;28;20478;-69
2022/05/17 04:34:51;;;;;;;14.82;5.45;;;17.80;87.00;;;;;;4993123;28;20050;-70
2022/05/17 04:37:16;;;;;;;13.80;4.55;;;17.80;87.20;;;;;;4990539;28;20533;-69
2022/05/17 04:39:42;;;;;;;10.85;4.05;;;17.70;87.30;;;;;;4988636;28;20037;-71
2022/05/17 04:42:08;;;;;;;15.45;4.70;;;17.70;87.40;;;;;;4991161;28;20058;-71
2022/05/17 04:44:34;;;;;;;17.45;4.40;;;17.70;87.80;;;;;;4990241;28;20042;-71
2022/05/17 04:46:59;;;;;;;22.13;5.03;;;17.70;87.90;;;;;;4988295;28;20088;-69
2022/05/17 04:49:25;;;;;;;15.90;4.43;;;17.70;87.70;;;;;;4992048;28;20026;-70
2022/05/17 04:51:52;;;;;;;6.30;2.75;;;17.70;87.80;;;;;;4992655;28;20030;-69
2022/05/17 04:54:20;;;;;;;16.02;3.42;;;17.60;87.40;;;;;;4990825;28;20023;-70
2022/05/17 04:56:46;;;;;;;13.02;3.58;;;17.70;87.60;;;;;;4989262;28;20049;-71
2022/05/17 04:59:14;;;;;;;10.85;3.70;;;17.60;88.00;;;;;;4989230;28;20050;-70
2022/05/17 05:01:39;;;;;;;5.72;2.60;;;17.60;88.20;;;;;;4989364;28;20064;-70
2022/05/17 05:04:06;;;;;;;13.68;3.42;;;17.60;88.10;;;;;;4989399;28;20038;-71
2022/05/17 05:06:32;;;;;;;12.52;3.55;;;17.50;88.50;;;;;;4991624;28;20050;-75
2022/05/17 05:08:59;;;;;;;11.40;3.50;;;17.50;88.60;;;;;;4991814;28;20045;-76
2022/05/17 05:11:25;;;;;;;5.03;1.85;;;17.50;88.90;;;;;;4991730;28;20031;-71
2022/05/17 05:13:53;;;;;;;14.15;3.05;;;17.50;89.00;;;;;;4986967;28;20045;-71
2022/05/17 05:16:19;;;;;;;11.00;3.88;;;17.50;89.50;;;;;;4989188;28;20027;-72
2022/05/17 05:18:45;;;;;;;9.02;2.20;;;17.50;90.00;;;;;;4988831;28;20029;-72
2022/05/17 05:21:13;;;;;;;12.65;2.88;;;17.50;90.00;;;;;;4988733;28;20402;-70
2022/05/17 05:23:40;;;;;;;10.75;3.53;;;17.50;90.10;;;;;;4989298;28;20030;-71
2022/05/17 05:26:07;;;;;;;13.68;3.63;;;17.50;90.30;;;;;;4989363;28;20043;-72
2022/05/17 05:28:34;;;;;;;6.05;1.75;;;17.50;90.40;;;;;;4989548;28;20077;-69
2022/05/17 05:31:00;;;;;;;11.32;2.83;;;17.60;90.40;;;;;;4990455;28;20110;-74
2022/05/17 05:33:26;;;;;;;16.45;1.65;;;17.60;90.70;;;;;;4993989;28;20029;-71
2022/05/17 05:35:53;;;;;;;5.45;2.13;;;17.50;90.80;;;;;;4993767;28;20034;-70
2022/05/17 05:38:20;;;;;;;10.43;2.92;;;17.50;91.00;;;;;;4995504;28;20583;-74
2022/05/17 05:40:46;;;;;;;9.57;2.85;;;17.40;91.20;;;;;;4994366;28;20034;-73
2022/05/17 05:43:12;;;;;;;11.05;2.42;;;17.50;91.30;;;;;;4992391;28;20030;-69
2022/05/17 05:45:38;;;;;;;17.75;4.15;;;17.50;91.30;;;;;;4991085;28;20049;-69
2022/05/17 05:48:05;;;;;;;10.48;2.63;;;17.50;91.30;;;;;;4991976;28;20047;-70
2022/05/17 05:50:31;;;;;;;10.38;2.58;;;17.50;91.30;;;;;;4993620;28;20053;-74
2022/05/17 05:53:06;;;;;;;18.08;4.95;;;17.50;91.20;;;;;;4997803;28;20430;-70
2022/05/17 05:55:34;;;;;;;12.60;3.80;;;17.60;91.70;;;;;;4996098;28;20125;-70
2022/05/17 05:58:00;;;;;;;12.07;3.88;;;17.60;91.40;;;;;;4997695;28;20108;-70
2022/05/17 06:00:28;;;;;;;11.60;3.70;;;17.60;91.40;;;;;;4997354;28;20130;-70
2022/05/17 06:02:55;;;;;;;8.57;2.67;;;17.60;91.40;;;;;;4998053;28;20026;-70
2022/05/17 06:05:22;;;;;;;8.30;2.20;;;17.70;91.50;;;;;;4994855;28;20478;-70
2022/05/17 06:07:48;;;;;;;12.15;2.70;;;17.70;91.70;;;;;;4994995;28;20486;-70
2022/05/17 06:10:14;;;;;;;17.48;3.28;;;17.70;91.90;;;;;;4994289;28;20026;-70
2022/05/17 06:12:40;;;;;;;9.25;3.22;;;17.70;91.90;;;;;;4995349;28;20038;-70
2022/05/17 06:15:07;;;;;;;11.38;3.10;;;17.70;92.00;;;;;;4995429;28;20030;-70
2022/05/17 06:17:40;;;;;;;5.70;2.20;;;17.70;92.00;;;;;;4994769;28;20042;-70
2022/05/17 06:20:07;;;;;;;2.72;1.73;;;17.70;92.10;;;;;;4995267;28;20041;-70
2022/05/17 06:22:34;;;;;;;18.45;3.15;;;17.80;92.20;;;;;;4994739;28;20027;-70
2022/05/17 06:25:00;;;;;;;9.65;2.50;;;17.70;92.30;;;;;;4995010;28;20034;-70
2022/05/17 06:27:26;;;;;;;8.15;2.35;;;17.80;92.40;;;;;;4994722;28;20042;-70
2022/05/17 06:29:52;;;;;;;4.20;1.63;;;17.70;92.40;;;;;;4991644;28;20524;-70
2022/05/17 06:32:18;;;;;;;9.45;2.03;;;17.70;92.50;;;;;;4990967;28;20080;-70
2022/05/17 06:34:47;;;;;;;3.45;1.75;;;17.70;92.60;;;;;;4994703;28;20033;-70
2022/05/17 06:37:13;;;;;;;11.48;3.35;;;17.80;92.50;;;;;;4992075;28;20125;-70
2022/05/17 06:39:42;;;;;;;11.85;2.80;;;17.80;92.60;;;;;;4994924;28;20467;-70
2022/05/17 06:42:08;;;;;;;7.85;2.00;;;17.90;92.60;;;;;;4994722;28;20134;-70
2022/05/17 06:44:36;;;;;;;7.63;2.60;;;17.90;92.60;;;;;;4994221;28;20038;-70
2022/05/17 06:47:01;;;;;;;5.75;1.90;;;17.90;92.70;;;;;;4994378;28;20052;-70
2022/05/17 06:49:27;;;;;;;7.68;2.33;;;17.90;92.70;;;;;;4994702;28;20109;-70
2022/05/17 06:51:54;;;;;;;9.40;2.33;;;18.00;92.70;;;;;;4994618;28;20034;-70
2022/05/17 06:54:20;;;;;;;14.23;4.07;;;18.00;92.60;;;;;;4994589;28;20030;-70
2022/05/17 06:56:45;;;;;;;5.28;1.30;;;18.10;92.70;;;;;;4994491;28;20172;-70
2022/05/17 06:59:11;;;;;;;17.02;4.68;;;18.10;92.50;;;;;;4994088;28;20030;-70
2022/05/17 07:01:38;;;;;;;5.53;1.38;;;18.10;92.90;;;;;;4994312;28;20030;-70
2022/05/17 07:04:04;;;;;;;1.17;1.08;;;18.20;92.50;;;;;;4994281;28;20037;-70
2022/05/17 07:06:29;;;;;;;10.50;2.95;;;18.20;92.60;;;;;;4993383;28;20069;-70
2022/05/17 07:08:55;;;;;;;7.90;3.13;;;18.20;92.50;;;;;;4994337;28;20478;-70
2022/05/17 07:14:05;;;;;;;15.00;3.80;;;18.30;92.40;;;;;;4993710;28;20486;-70
2022/05/17 07:16:31;;;;;;;5.43;2.35;;;18.30;92.60;;;;;;4993741;28;20026;-70
2022/05/17 07:18:57;;;;;;;12.00;4.72;;;18.40;92.70;;;;;;4994115;28;20050;-70
2022/05/17 07:21:23;;;;;;;12.35;4.53;;;18.30;92.90;;;;;;4993674;28;20101;-70
2022/05/17 07:23:49;;;;;;;8.18;2.95;;;18.40;92.80;;;;;;4994005;28;20494;-70
2022/05/17 07:26:15;;;;;;;9.48;2.60;;;18.50;92.30;;;;;;4993431;28;20042;-70
2022/05/17 07:28:44;;;;;;;18.48;4.80;;;18.60;92.30;;;;;;4993969;28;20030;-70
2022/05/17 07:31:14;;;;;;;9.95;3.65;;;18.60;92.40;;;;;;4986624;28;20121;-70
2022/05/17 07:33:40;;;;;;;11.90;4.35;;;18.70;92.20;;;;;;4993072;28;20402;-70
2022/05/17 07:36:08;;;;;;;13.02;3.53;;;18.80;92.40;;;;;;4993798;28;20040;-70
2022/05/17 07:38:34;;;;;;;16.63;4.03;;;18.80;92.20;;;;;;4993723;28;20038;-70
2022/05/17 07:41:00;;;;;;;15.35;2.30;;;18.90;92.20;;;;;;4993317;28;20405;-70
2022/05/17 07:43:26;;;;;;;10.00;2.63;;;18.90;91.90;;;;;;4993281;28;20539;-70
2022/05/17 07:45:53;;;;;;;17.52;3.05;;;19.00;92.10;;;;;;4993595;28;20359;-70
2022/05/17 07:48:22;;;;;;;13.50;3.75;;;19.00;92.00;;;;;;4993063;28;20033;-70
2022/05/17 07:50:49;;;;;;;7.07;2.78;;;19.00;92.10;;;;;;4993543;28;20030;-70
2022/05/17 07:53:17;;;;;;;10.23;2.38;;;19.00;92.00;;;;;;4993605;28;20061;-70
2022/05/17 07:55:44;;;;;;;8.02;2.60;;;19.00;91.90;;;;;;4992469;28;20034;-70
2022/05/17 07:58:11;;;;;;;5.70;1.52;;;19.00;92.00;;;;;;4993126;28;20429;-70
2022/05/17 08:00:38;;;;;;;11.15;4.10;;;19.00;91.90;;;;;;4993423;28;20038;-70
2022/05/17 08:03:05;;;;;;;3.92;1.13;;;19.10;92.00;;;;;;4993054;28;20486;-70
2022/05/17 08:05:32;;;;;;;14.80;3.20;;;19.10;91.80;;;;;;4994592;28;20500;-70
2022/05/17 08:08:02;;;;;;;6.28;3.55;;;19.10;91.90;;;;;;4992735;28;20133;-70
2022/05/17 08:10:29;;;;;;;11.35;3.03;;;19.20;91.80;;;;;;4993006;28;20026;-70
2022/05/17 08:12:55;;;;;;;3.95;1.48;;;19.30;91.80;;;;;;4992923;28;20089;-70
2022/05/17 08:15:23;;;;;;;8.13;2.85;;;19.20;91.80;;;;;;4992977;28;20022;-72
2022/05/17 08:17:49;;;;;;;15.32;2.80;;;19.30;91.90;;;;;;4992189;28;20046;-69
2022/05/17 08:20:15;;;;;;;9.40;2.47;;;19.30;91.80;;;;;;4992873;28;20533;-70
2022/05/17 08:22:43;;;;;;;11.70;3.70;;;19.40;91.90;;;;;;4992882;28;20133;-71
2022/05/17 08:28:04;;;;;;;7.03;2.55;;;19.60;91.50;;;;;;4993177;28;20038;-71
2022/05/17 08:30:40;;;;;;;18.17;3.22;;;19.60;91.50;;;;;;4991219;28;20039;-70
2022/05/17 08:33:16;;;;;;;6.95;2.55;;;19.70;91.40;;;;;;4992289;28;20117;-71
2022/05/17 08:35:44;;;;;;;7.28;2.75;;;19.70;91.40;;;;;;4992405;28;20031;-71
2022/05/17 08:38:12;;;;;;;11.18;2.97;;;19.70;91.40;;;;;;4986178;28;20478;-71
2022/05/17 08:41:13;;;;;;;10.13;2.58;;;19.80;91.30;;;;;;4992759;28;20482;-71
2022/05/17 08:43:50;;;;;;;16.08;4.13;;;19.90;91.20;;;;;;4972636;28;20045;-71
2022/05/17 08:46:39;;;;;;;8.45;3.13;;;19.90;91.20;;;;;;4981538;28;20034;-70
2022/05/17 08:49:24;;;;;;;3.53;1.83;;;20.00;91.20;;;;;;4993172;28;20026;-70
2022/05/17 08:51:58;;;;;;;9.27;3.25;;;20.10;91.00;;;;;;4992268;28;20471;-71
2022/05/17 08:54:36;;;;;;;12.65;2.15;;;20.00;91.00;;;;;;4992870;28;20105;-71
2022/05/17 08:57:06;;;;;;;10.02;3.50;;;20.10;91.10;;;;;;4992703;28;20471;-70
2022/05/17 08:59:36;;;;;;;18.08;3.67;;;20.00;91.30;;;;;;4992652;28;20069;-71
2022/05/17 09:02:16;;;;;;;9.65;2.70;;;20.10;91.30;;;;;;4992676;28;20023;-70
2022/05/17 09:04:41;;;;;;;15.00;3.75;;;20.20;91.00;;;;;;4991965;28;20069;-71
2022/05/17 09:07:22;;;;;;;14.57;3.05;;;20.20;90.80;;;;;;4995105;28;20088;-70
2022/05/17 09:10:18;;;;;;;10.18;3.28;;;20.20;90.80;;;;;;4996473;28;20038;-70
2022/05/17 09:12:52;;;;;;;12.13;3.58;;;20.30;90.70;;;;;;4987430;28;20046;-71
2022/05/17 09:15:19;;;;;;;14.65;3.45;;;20.40;90.40;;;;;;4996334;28;20042;-71
2022/05/17 09:17:47;;;;;;;11.48;2.78;;;20.50;90.50;;;;;;4996171;28;20038;-71
2022/05/17 09:20:18;;;;;;;10.55;3.58;;;20.50;90.40;;;;;;4996258;28;20105;-71
2022/05/17 09:22:44;;;;;;;12.00;3.85;;;20.60;90.40;;;;;;4996122;28;20034;-71
2022/05/17 09:25:20;;;;;;;15.55;3.50;;;20.70;90.30;;;;;;4997681;28;20470;-71
2022/05/17 09:27:49;;;;;;;15.68;3.50;;;20.70;90.30;;;;;;4996168;28;20045;-71
2022/05/17 09:30:21;;;;;;;8.38;2.53;;;20.70;90.30;;;;;;4991394;28;20034;-71
2022/05/17 09:32:48;;;;;;;6.63;2.70;;;20.70;90.20;;;;;;4985828;28;20113;-71
2022/05/17 09:35:20;;;;;;;12.93;3.65;;;20.80;90.20;;;;;;4997340;28;20037;-71
2022/05/17 09:37:57;;;;;;;13.45;2.75;;;20.90;90.00;;;;;;4988739;28;20030;-71
2022/05/17 09:40:28;;;;;;;11.23;2.42;;;20.90;90.10;;;;;;4997298;28;20094;-71
2022/05/17 09:42:54;;;;;;;9.70;3.25;;;21.00;89.80;;;;;;4997580;28;20413;-70
2022/05/17 09:45:35;;;;;;;9.70;2.63;;;21.10;89.40;;;;;;4996782;28;20025;-70
2022/05/17 09:48:06;;;;;;;16.23;2.90;;;21.10;89.30;;;;;;4996016;28;20457;-71
2022/05/17 09:53:40;;;;;;;8.93;2.35;;;21.20;88.20;;;;;;4997282;28;20042;-71
2022/05/17 09:56:07;;;;;;;11.65;3.88;;;21.30;87.80;;;;;;4996695;28;20110;-71
2022/05/17 09:58:34;;;;;;;11.90;2.85;;;21.30;88.00;;;;;;4997554;28;20117;-70
2022/05/17 10:01:19;;;;;;;12.60;3.05;;;21.40;88.30;;;;;;4996808;28;20479;-71
2022/05/17 10:04:02;;;;;;;13.77;2.88;;;21.40;88.20;;;;;;4997496;28;20030;-71
2022/05/17 10:06:31;;;;;;;;;;;21.60;87.90;;;;;;4998652;28;20054;-71
2022/05/17 10:09:01;;;;;;;15.15;3.13;;;21.60;88.00;;;;;;4996501;28;20001;-71
2022/05/17 10:11:28;;;;;;;15.20;2.83;;;21.60;88.00;;;;;;4997030;28;20031;-71
2022/05/17 10:14:19;;;;;;;11.25;3.20;;;21.70;88.10;;;;;;4996791;28;20074;-71
2022/05/17 10:16:47;;;;;;;9.60;2.85;;;21.80;87.80;;;;;;4984453;28;20500;-71
2022/05/17 10:19:35;;;;;;;11.63;3.10;;;21.80;87.00;;;;;;4996475;28;20098;-71
2022/05/17 10:22:32;;;;;;;15.93;4.20;;;22.00;87.20;;;;;;4997629;28;20030;-71
2022/05/17 10:25:03;;;;;;;12.18;3.17;;;22.00;86.70;;;;;;4979911;28;20394;-71
2022/05/17 10:27:46;;;;;;;10.60;2.72;;;22.10;86.50;;;;;;4995366;28;20050;-71
2022/05/17 10:30:16;;;;;;;13.50;3.22;;;22.10;86.70;;;;;;4990736;28;20482;-71
2022/05/17 10:33:01;;;;;;;13.32;3.20;;;22.20;87.00;;;;;;4995419;28;20031;-71
2022/05/17 10:35:47;;;;;;;13.90;2.83;;;22.20;86.10;;;;;;4994885;28;20034;-71
2022/05/17 10:38:18;;;;;;;6.88;2.58;;;22.30;86.00;;;;;;4992685;28;20483;-71
2022/05/17 10:40:47;;;;;;;12.63;2.75;;;22.40;85.80;;;;;;4994364;28;20405;-71
2022/05/17 10:43:54;;;;;;;9.02;3.47;;;22.50;85.70;;;;;;4994138;28;20089;-71
2022/05/17 10:46:29;;;;;;;10.63;3.20;;;22.60;85.80;;;;;;4991136;28;20368;-71
2022/05/17 10:49:33;;;;;;;11.80;2.97;;;22.70;85.70;;;;;;4985030;28;20084;-71
2022/05/17 10:52:08;;;;;;;12.80;3.25;;;22.70;85.10;;;;;;4988059;28;20470;-70
2022/05/17 10:54:59;;;;;;;10.90;3.38;;;22.80;85.30;;;;;;4995813;28;20057;-71
2022/05/17 10:57:46;;;;;;;20.80;4.10;;;22.80;85.00;;;;;;4995756;28;20061;-71
2022/05/17 11:00:20;;;;;;;11.65;3.33;;;22.80;84.40;;;;;;4997239;28;20085;-71
2022/05/17 11:02:49;;;;;;;13.95;3.00;;;22.90;83.90;;;;;;4997033;28;20406;-71
2022/05/17 11:05:53;;;;;;;16.10;3.17;;;22.90;84.10;;;;;;4995890;28;20117;-71
2022/05/17 11:08:18;;;;;;;;;;;22.90;83.40;;;;;;4996357;28;20046;-71
2022/05/17 11:10:59;;;;;;;17.83;2.78;;;23.00;83.90;;;;;;4997082;28;19910;-71
2022/05/17 11:13:42;;;;;;;12.95;2.50;;;22.90;82.70;;;;;;4995491;28;20382;-71
2022/05/17 11:16:18;;;;;;;11.85;2.55;;;23.00;83.20;;;;;;4996913;28;20533;-71
2022/05/17 11:18:53;;;;;;;12.20;2.92;;;23.00;82.90;;;;;;4995897;28;20113;-71
2022/05/17 11:21:33;;;;;;;15.20;3.20;;;23.10;82.30;;;;;;4993921;28;20061;-71
2022/05/17 11:24:17;;;;;;;12.35;2.70;;;23.10;81.60;;;;;;4994114;28;20045;-71
2022/05/17 11:26:47;;;;;;;11.40;2.58;;;23.10;81.10;;;;;;4993454;28;20046;-69
2022/05/17 11:29:29;;;;;;;11.38;2.40;;;23.20;80.70;;;;;;4992248;28;20034;-70
2022/05/17 11:32:15;;;;;;;8.18;2.22;;;23.30;81.40;;;;;;4993095;28;20045;-69
2022/05/17 11:34:44;;;;;;;13.15;2.80;;;23.30;81.50;;;;;;4988930;28;20030;-69
2022/05/17 11:37:32;;;;;;;11.57;2.53;;;23.30;81.10;;;;;;4989698;28;20042;-75
2022/05/17 11:40:00;;;;;;;6.85;2.33;;;23.30;81.00;;;;;;4990522;28;20114;-75
2022/05/17 11:43:40;;;;;;;12.30;2.67;;;23.40;80.90;;;;;;4993387;28;20474;-75
2022/05/17 11:45:49;;;;;;;14.85;2.83;;;23.50;80.30;;;;;;4983508;28;20042;-74
2022/05/17 11:48:19;;;;;;;11.88;2.63;;;23.50;80.40;;;;;;4991885;28;20093;-74
2022/05/17 11:51:01;;;;;;;16.30;2.50;;;23.60;80.60;;;;;;4992116;28;20025;-73
2022/05/17 11:53:27;;;;;;;9.80;2.22;;;23.60;80.30;;;;;;4992260;28;20034;-74
2022/05/17 11:56:13;;;;;;;11.18;2.58;;;23.60;80.00;;;;;;4991810;28;20030;-74
2022/05/17 11:58:39;;;;;;;10.02;2.25;;;23.70;79.30;;;;;;4991230;28;20034;-74
2022/05/17 12:01:26;;;;;;;14.57;2.55;;;23.70;79.90;;;;;;4992196;28;20072;-74
2022/05/17 12:04:02;;;;;;;10.05;2.30;;;23.70;80.40;;;;;;4991019;28;20109;-74
2022/05/17 12:06:53;;;;;;;13.27;2.70;;;23.80;79.40;;;;;;4989637;28;20134;-73
2022/05/17 12:09:31;;;;;;;13.18;2.75;;;23.70;78.80;;;;;;4990030;28;20097;-74
2022/05/17 12:12:40;;;;;;;17.65;3.58;;;23.80;77.60;;;;;;4992930;28;20053;-76
2022/05/17 12:15:46;;;;;;;11.05;2.30;;;23.90;76.90;;;;;;4992359;28;20054;-71
2022/05/17 12:18:31;;;;;;;16.83;3.20;;;24.10;76.60;;;;;;4990344;28;20027;-71
2022/05/17 12:21:24;;;;;;;9.95;2.10;;;24.10;76.90;;;;;;4992935;28;20038;-71
2022/05/17 12:23:58;;;;;;;8.63;2.08;;;24.10;78.50;;;;;;4992841;28;20114;-73
2022/05/17 12:26:42;;;;;;;18.85;3.35;;;24.10;79.70;;;;;;4993037;28;20081;-70
2022/05/17 12:32:00;;;;;;;13.07;2.78;;;24.10;79.10;;;;;;4981990;28;20267;-69
2022/05/17 12:34:26;;;;;;;10.07;2.50;;;24.20;78.20;;;;;;4991545;28;20034;-70
2022/05/17 12:37:09;;;;;;;13.20;3.70;;;24.20;77.20;;;;;;4989700;28;20549;-70
2022/05/17 12:45:15;;;;;;;13.90;2.60;;;24.50;76.00;;;;;;4996091;28;20070;-70
2022/05/17 12:47:52;;;;;;;13.32;3.17;;;24.60;75.90;;;;;;4996735;28;20564;-70
2022/05/17 12:50:38;;;;;;;10.38;3.10;;;24.70;75.60;;;;;;4995706;28;20076;-70
2022/05/17 12:53:23;;;;;;;12.40;2.30;;;24.70;76.60;;;;;;4995996;28;20041;-70
2022/05/17 12:56:08;;;;;;;11.82;2.75;;;24.70;75.60;;;;;;4996709;28;20497;-70
2022/05/17 12:58:49;;;;;;;7.30;2.03;;;24.80;74.70;;;;;;4996150;28;20026;-70
2022/05/17 13:01:31;;;;;;;9.57;2.00;;;24.90;77.00;;;;;;4996121;28;20030;-69
2022/05/17 13:03:58;;;;;;;12.80;2.78;;;24.90;77.20;;;;;;4995941;28;20038;-68
2022/05/17 13:06:48;;;;;;;13.15;2.40;;;24.90;78.30;;;;;;4995858;28;20038;-69
2022/05/17 13:09:21;;;;;;;7.63;2.08;;;24.80;77.00;;;;;;4993897;28;20054;-70
2022/05/17 13:11:48;;;;;;;9.02;2.30;;;24.80;76.90;;;;;;4994833;28;20113;-70
2022/05/17 13:14:32;;;;;;;13.00;2.70;;;24.80;77.80;;;;;;4995245;28;20066;-70
2022/05/17 13:17:24;;;;;;;9.52;2.25;;;24.90;78.90;;;;;;4995366;28;20397;-70
2022/05/17 13:19:55;;;;;;;13.32;2.42;;;24.90;78.90;;;;;;4992072;28;20121;-69